Time;durP1;ratioP1;P1;durP2;ratioP2;P2;SDS_P1;SDS_P2;PMS_P1;PMS_P2;Temp;Humidity;BMP_temperature;BMP_pressure;BME280_temperature;BME280_humidity;BME280_pressure;Samples;Min_cycle;Max_cycle;Signal;HPM_P1;HPM_P2
2021/12/20 00:01:58;;;;;;;33.58;5.68;;;6.80;99.90;;;;;;4998980;28;20030;-50
2021/12/20 00:04:24;;;;;;;29.95;4.60;;;6.80;99.90;;;;;;5013560;28;20137;-47
2021/12/20 00:06:49;;;;;;;31.88;4.65;;;6.80;99.90;;;;;;5014571;28;20077;-46
2021/12/20 00:09:15;;;;;;;35.42;5.07;;;6.80;99.90;;;;;;5011319;28;20084;-47
2021/12/20 00:11:41;;;;;;;29.17;4.25;;;6.80;99.90;;;;;;5023860;28;20490;-47
2021/12/20 00:14:07;;;;;;;23.60;3.53;;;6.70;99.90;;;;;;5020288;28;20512;-48
2021/12/20 00:16:33;;;;;;;27.30;4.28;;;6.80;99.90;;;;;;5014275;28;20042;-50
2021/12/20 00:18:58;;;;;;;27.85;4.18;;;6.80;99.90;;;;;;5009124;28;20042;-48
2021/12/20 00:21:24;;;;;;;31.85;5.20;;;6.80;99.90;;;;;;5011739;28;20038;-48
2021/12/20 00:23:50;;;;;;;24.63;4.63;;;6.70;99.90;;;;;;5018854;22;20034;-52
2021/12/20 00:26:16;;;;;;;29.33;4.68;;;6.70;99.90;;;;;;5006158;28;20501;-52
2021/12/20 00:28:42;;;;;;;23.55;4.03;;;6.70;99.90;;;;;;5041155;28;20035;-51
2021/12/20 00:31:09;;;;;;;31.38;4.25;;;6.70;99.90;;;;;;5053314;28;20037;-50
2021/12/20 00:33:34;;;;;;;30.13;4.85;;;6.70;99.90;;;;;;5053203;28;20408;-50
2021/12/20 00:36:02;;;;;;;28.95;4.40;;;6.70;99.90;;;;;;5047588;28;20116;-52
2021/12/20 00:41:12;;;;;;;29.58;4.70;;;6.60;99.90;;;;;;5012633;28;20057;-50
2021/12/20 00:43:37;;;;;;;27.63;4.22;;;6.70;99.90;;;;;;5051415;28;20036;-49
2021/12/20 00:46:04;;;;;;;28.00;4.53;;;6.70;99.90;;;;;;5053713;28;20047;-50
2021/12/20 00:48:29;;;;;;;33.58;5.25;;;6.60;99.90;;;;;;5053582;28;20126;-53
2021/12/20 00:50:55;;;;;;;36.83;4.68;;;6.60;99.90;;;;;;5053425;28;20060;-51
2021/12/20 00:53:22;;;;;;;21.27;4.13;;;6.60;99.90;;;;;;5017540;28;20081;-51
2021/12/20 00:55:48;;;;;;;24.48;4.75;;;6.60;99.90;;;;;;5002027;28;20071;-51
2021/12/20 00:58:14;;;;;;;25.42;4.95;;;6.60;99.90;;;;;;5053490;28;20489;-48
2021/12/20 01:00:46;;;;;;;26.08;4.82;;;6.50;99.90;;;;;;5019221;28;20511;-50
2021/12/20 01:03:13;;;;;;;26.48;4.90;;;6.50;99.90;;;;;;5052277;28;20041;-51
2021/12/20 01:06:16;;;;;;;42.72;5.05;;;6.50;99.90;;;;;;5053150;28;20517;-52
2021/12/20 01:08:43;;;;;;;32.72;4.45;;;6.50;99.90;;;;;;5032992;28;20050;-49
2021/12/20 01:11:09;;;;;;;31.77;4.63;;;6.50;99.90;;;;;;4997506;28;20371;-49
2021/12/20 01:13:40;;;;;;;26.10;4.47;;;6.50;99.90;;;;;;5048245;28;20413;-49
2021/12/20 01:16:07;;;;;;;25.38;4.38;;;6.50;99.90;;;;;;5052890;28;20520;-50
2021/12/20 01:18:33;;;;;;;24.73;4.43;;;6.50;99.90;;;;;;5010550;28;20034;-50
2021/12/20 01:20:58;;;;;;;37.58;4.68;;;6.50;99.90;;;;;;5033286;28;20106;-51
2021/12/20 01:23:24;;;;;;;28.92;5.25;;;6.50;99.90;;;;;;5051037;28;20509;-48
2021/12/20 01:25:50;;;;;;;28.35;4.97;;;6.50;99.90;;;;;;5037027;28;20183;-49
2021/12/20 01:28:17;;;;;;;24.15;3.97;;;6.50;99.90;;;;;;5001876;28;20389;-50
2021/12/20 01:30:44;;;;;;;25.05;4.05;;;6.50;99.90;;;;;;5034975;28;20040;-47
2021/12/20 01:33:11;;;;;;;22.02;4.30;;;6.40;99.90;;;;;;5034146;28;20072;-48
2021/12/20 01:35:37;;;;;;;26.88;3.97;;;6.50;99.90;;;;;;5052835;28;20082;-49
2021/12/20 01:38:04;;;;;;;26.50;4.05;;;6.50;99.90;;;;;;5053227;28;20489;-50
2021/12/20 01:40:29;;;;;;;30.52;4.38;;;6.50;99.90;;;;;;5052203;28;20041;-47
2021/12/20 01:42:57;;;;;;;25.08;4.35;;;6.50;99.90;;;;;;5033951;28;20045;-51
2021/12/20 01:45:26;;;;;;;25.80;4.10;;;6.50;99.90;;;;;;5052849;28;20064;-51
2021/12/20 01:48:02;;;;;;;28.38;4.57;;;6.50;99.90;;;;;;5052694;28;20385;-49
2021/12/20 01:53:07;;;;;;;26.25;4.45;;;6.50;99.90;;;;;;5052155;28;20049;-49
2021/12/20 01:55:33;;;;;;;23.58;4.63;;;6.50;99.90;;;;;;5050432;28;20389;-50
2021/12/20 01:57:58;;;;;;;32.03;5.05;;;6.60;99.90;;;;;;5029082;28;20112;-47
2021/12/20 02:00:27;;;;;;;29.63;4.32;;;6.50;99.90;;;;;;5035178;28;20456;-50
2021/12/20 02:02:58;;;;;;;23.90;4.28;;;6.60;99.90;;;;;;5032185;28;20156;-48
2021/12/20 02:05:47;;;;;;;30.27;3.90;;;6.50;99.90;;;;;;5032271;28;20378;-51
2021/12/20 02:08:17;;;;;;;22.20;4.25;;;6.50;99.90;;;;;;5032190;28;20041;-48
2021/12/20 02:10:47;;;;;;;39.97;4.38;;;6.50;99.90;;;;;;5029554;28;20037;-47
2021/12/20 02:13:14;;;;;;;23.60;4.90;;;6.50;99.90;;;;;;5033917;28;20494;-47
2021/12/20 02:15:40;;;;;;;26.48;4.20;;;6.50;99.90;;;;;;5022974;22;20038;-53
2021/12/20 02:18:06;;;;;;;25.63;3.85;;;6.40;99.90;;;;;;5007677;28;20088;-52
2021/12/20 02:20:34;;;;;;;32.78;4.50;;;6.50;99.90;;;;;;5012041;28;20044;-51
2021/12/20 02:23:01;;;;;;;24.60;3.85;;;6.50;99.90;;;;;;5008632;28;20096;-51
2021/12/20 02:25:28;;;;;;;21.67;4.05;;;6.50;99.90;;;;;;5010112;28;20076;-52
2021/12/20 02:27:54;;;;;;;21.08;4.50;;;6.50;99.90;;;;;;5011716;28;20676;-52
2021/12/20 02:38:28;;;;;;;21.88;3.75;;;6.40;99.90;;;;;;5012249;28;20564;-52
2021/12/20 02:40:59;;;;;;;23.15;3.53;;;6.40;99.90;;;;;;5011201;28;20057;-53
2021/12/20 02:43:24;;;;;;;20.15;3.95;;;6.40;99.90;;;;;;5011548;28;20048;-53
2021/12/20 02:45:54;;;;;;;33.90;6.25;;;6.40;99.90;;;;;;5011837;28;20125;-52
2021/12/20 02:48:20;;;;;;;21.60;4.32;;;6.40;99.90;;;;;;5012041;28;20069;-53
2021/12/20 02:50:45;;;;;;;29.33;5.47;;;6.40;99.90;;;;;;5011707;28;20069;-54
2021/12/20 02:53:11;;;;;;;22.98;5.07;;;6.40;99.90;;;;;;5011800;28;20042;-52
2021/12/20 02:55:36;;;;;;;24.45;3.50;;;6.40;99.90;;;;;;5011791;28;20046;-51
2021/12/20 02:58:02;;;;;;;27.92;5.18;;;6.30;99.90;;;;;;5012026;28;20425;-54
2021/12/20 03:00:27;;;;;;;25.38;4.90;;;6.30;99.90;;;;;;5011744;28;20425;-52
2021/12/20 03:02:53;;;;;;;19.77;3.85;;;6.30;99.90;;;;;;5011657;28;20057;-52
2021/12/20 03:05:18;;;;;;;28.83;5.07;;;6.30;99.90;;;;;;5015723;28;20042;-51
2021/12/20 03:07:50;;;;;;;34.97;4.88;;;6.30;99.90;;;;;;5016209;28;20041;-52
2021/12/20 03:10:17;;;;;;;32.75;4.18;;;6.30;99.90;;;;;;5015653;28;20045;-51
2021/12/20 03:12:43;;;;;;;23.92;4.10;;;6.40;99.90;;;;;;5015262;28;20077;-51
2021/12/20 03:15:14;;;;;;;23.00;4.32;;;6.30;99.90;;;;;;5015295;28;20030;-51
2021/12/20 03:17:39;;;;;;;23.08;4.20;;;6.30;99.90;;;;;;5015923;28;20048;-51
2021/12/20 03:20:06;;;;;;;20.85;3.67;;;6.30;99.90;;;;;;5004124;28;20121;-52
2021/12/20 03:22:32;;;;;;;23.77;4.18;;;6.30;99.90;;;;;;4996358;28;20042;-51
2021/12/20 03:24:58;;;;;;;23.42;3.55;;;6.30;99.90;;;;;;5001987;28;20046;-52
2021/12/20 03:27:23;;;;;;;23.98;3.83;;;6.30;99.90;;;;;;5015616;28;20117;-51
2021/12/20 03:29:49;;;;;;;20.58;3.72;;;6.30;99.90;;;;;;5014274;28;20669;-52
2021/12/20 03:32:15;;;;;;;22.45;3.88;;;6.40;99.90;;;;;;5015282;28;20037;-52
2021/12/20 03:34:40;;;;;;;19.35;3.42;;;6.30;99.90;;;;;;5015494;28;20034;-52
2021/12/20 03:37:06;;;;;;;21.98;3.70;;;6.30;99.90;;;;;;5015504;28;20033;-52
2021/12/20 03:39:32;;;;;;;23.48;3.50;;;6.30;99.90;;;;;;5014651;28;20045;-51
2021/12/20 03:41:58;;;;;;;21.58;3.50;;;6.30;99.90;;;;;;5015356;28;20038;-51
2021/12/20 03:44:23;;;;;;;23.23;3.83;;;6.20;99.90;;;;;;5015062;28;20461;-51
2021/12/20 03:46:49;;;;;;;19.38;3.47;;;6.20;99.90;;;;;;5015217;28;20125;-51
2021/12/20 03:49:15;;;;;;;24.60;5.18;;;6.20;99.90;;;;;;5009748;28;20070;-52
2021/12/20 03:51:40;;;;;;;21.73;3.25;;;6.20;99.90;;;;;;4995499;28;20045;-52
2021/12/20 03:54:06;;;;;;;25.95;3.97;;;6.20;99.90;;;;;;5006657;28;20045;-52
2021/12/20 03:56:32;;;;;;;20.27;3.28;;;6.10;99.90;;;;;;5010867;28;20042;-51
2021/12/20 03:58:58;;;;;;;16.90;2.88;;;6.10;99.90;;;;;;5008015;28;20453;-52
2021/12/20 04:01:25;;;;;;;20.13;3.20;;;6.10;99.90;;;;;;5015239;28;20038;-52
2021/12/20 04:03:50;;;;;;;21.30;3.63;;;6.10;99.90;;;;;;5014695;28;20041;-51
2021/12/20 04:06:16;;;;;;;18.83;3.70;;;6.00;99.90;;;;;;5015025;28;20042;-52
2021/12/20 04:08:42;;;;;;;21.45;3.42;;;5.90;99.90;;;;;;5013787;28;20065;-51
2021/12/20 04:11:08;;;;;;;25.17;3.63;;;5.90;99.90;;;;;;5014534;28;20131;-53
2021/12/20 04:13:34;;;;;;;20.65;3.20;;;5.90;99.90;;;;;;5014242;28;20589;-52
2021/12/20 04:16:00;;;;;;;18.73;3.50;;;5.90;99.90;;;;;;5014231;28;20124;-52
2021/12/20 04:18:27;;;;;;;24.17;2.70;;;5.90;99.90;;;;;;4996943;28;20038;-51
2021/12/20 04:20:53;;;;;;;25.92;3.50;;;5.90;99.90;;;;;;5013670;28;20041;-54
2021/12/20 04:23:18;;;;;;;13.25;2.30;;;5.90;99.90;;;;;;5013844;28;20034;-51
2021/12/20 04:25:44;;;;;;;18.83;3.20;;;5.80;99.90;;;;;;5014512;28;20052;-51
2021/12/20 04:28:10;;;;;;;17.83;3.17;;;5.80;99.90;;;;;;5014230;28;20404;-53
2021/12/20 04:30:36;;;;;;;13.55;2.67;;;5.70;99.90;;;;;;5013133;28;20108;-52
2021/12/20 04:33:02;;;;;;;20.63;3.45;;;5.70;99.90;;;;;;5014260;28;20056;-51
2021/12/20 04:35:28;;;;;;;19.85;2.83;;;5.70;99.90;;;;;;5014196;28;20061;-51
2021/12/20 04:37:56;;;;;;;14.68;2.83;;;5.60;99.90;;;;;;5014165;28;20065;-52
2021/12/20 04:40:22;;;;;;;16.95;3.08;;;5.60;99.90;;;;;;5012904;28;20041;-52
2021/12/20 04:42:55;;;;;;;14.57;2.92;;;5.60;99.90;;;;;;4996007;28;20125;-52
2021/12/20 04:45:22;;;;;;;21.80;3.25;;;5.60;99.90;;;;;;5013902;28;20046;-51
2021/12/20 04:47:48;;;;;;;18.38;3.33;;;5.60;99.90;;;;;;4996551;28;20092;-52
2021/12/20 04:50:15;;;;;;;23.90;3.30;;;5.60;99.90;;;;;;4992685;28;20057;-53
2021/12/20 04:52:41;;;;;;;22.52;3.45;;;5.60;99.90;;;;;;4994325;28;20461;-51
2021/12/20 04:55:09;;;;;;;27.05;3.25;;;5.60;99.90;;;;;;5007193;28;20121;-51
2021/12/20 04:57:35;;;;;;;21.58;3.92;;;5.60;99.90;;;;;;5014263;28;20052;-52
2021/12/20 05:00:01;;;;;;;23.17;3.20;;;5.60;99.90;;;;;;5013791;28;20046;-51
2021/12/20 05:02:26;;;;;;;21.80;2.83;;;5.60;99.90;;;;;;5013609;28;20087;-51
2021/12/20 05:04:52;;;;;;;19.92;3.00;;;5.60;99.90;;;;;;5013766;28;20030;-51
2021/12/20 05:07:18;;;;;;;19.58;3.70;;;5.70;99.90;;;;;;5013488;28;20042;-52
2021/12/20 05:09:43;;;;;;;17.23;3.00;;;5.70;99.90;;;;;;5012713;28;20034;-52
2021/12/20 05:12:14;;;;;;;19.20;3.22;;;5.70;99.90;;;;;;5013634;28;20042;-51
2021/12/20 05:14:42;;;;;;;19.52;3.42;;;5.70;99.90;;;;;;5013553;28;20471;-54
2021/12/20 05:17:09;;;;;;;20.10;3.20;;;5.70;99.90;;;;;;5013235;28;20418;-53
2021/12/20 05:19:34;;;;;;;17.02;3.00;;;5.70;99.90;;;;;;5013530;28;20049;-54
2021/12/20 05:22:00;;;;;;;24.58;3.30;;;5.80;99.90;;;;;;5012824;28;20030;-54
2021/12/20 05:24:26;;;;;;;20.13;3.30;;;5.70;99.90;;;;;;5013320;28;20121;-54
2021/12/20 05:26:51;;;;;;;18.20;2.80;;;5.70;99.90;;;;;;5013100;28;20046;-54
2021/12/20 05:29:17;;;;;;;20.95;2.58;;;5.70;99.90;;;;;;5012991;28;20065;-54
2021/12/20 05:31:42;;;;;;;16.77;2.83;;;5.70;99.90;;;;;;5013537;28;20045;-55
2021/12/20 05:34:08;;;;;;;21.23;3.33;;;5.80;99.90;;;;;;5012977;28;20042;-54
2021/12/20 05:36:34;;;;;;;18.17;3.20;;;5.80;99.90;;;;;;5012981;28;20038;-53
2021/12/20 05:38:59;;;;;;;19.58;3.75;;;5.70;99.90;;;;;;5010251;28;20030;-52
2021/12/20 05:41:25;;;;;;;18.80;2.90;;;5.70;99.90;;;;;;5016392;28;20406;-51
2021/12/20 05:43:51;;;;;;;16.63;2.63;;;5.70;99.90;;;;;;5019919;28;20042;-52
2021/12/20 05:46:17;;;;;;;17.80;2.67;;;5.70;99.90;;;;;;5013050;28;20042;-53
2021/12/20 05:48:42;;;;;;;12.05;2.50;;;5.70;99.90;;;;;;5012434;28;20056;-51
2021/12/20 05:51:08;;;;;;;15.90;2.78;;;5.70;99.90;;;;;;5012217;28;20048;-53
2021/12/20 05:53:34;;;;;;;16.92;2.42;;;5.70;99.90;;;;;;5012427;28;20120;-52
2021/12/20 05:55:59;;;;;;;15.00;2.40;;;5.70;99.90;;;;;;5012937;28;20129;-52
2021/12/20 05:58:25;;;;;;;12.77;2.40;;;5.70;99.90;;;;;;5011517;28;20029;-52
2021/12/20 06:00:51;;;;;;;18.25;2.83;;;5.70;99.90;;;;;;5005337;28;20033;-51
2021/12/20 06:03:16;;;;;;;13.82;2.35;;;5.60;99.90;;;;;;5012258;28;20048;-54
2021/12/20 06:05:42;;;;;;;13.45;2.55;;;5.60;99.90;;;;;;5010255;28;20405;-53
2021/12/20 06:08:09;;;;;;;13.65;2.40;;;5.60;99.90;;;;;;4992797;28;20053;-52
2021/12/20 06:10:35;;;;;;;15.35;2.20;;;5.50;99.90;;;;;;5011280;28;20045;-53
2021/12/20 06:13:02;;;;;;;17.00;3.40;;;5.50;99.90;;;;;;4994382;28;20360;-52
2021/12/20 06:15:28;;;;;;;15.80;2.55;;;5.40;99.90;;;;;;5012217;28;20078;-54
2021/12/20 06:17:54;;;;;;;19.52;2.83;;;5.40;99.90;;;;;;5012861;28;20441;-52
2021/12/20 06:20:19;;;;;;;17.08;2.70;;;5.30;99.90;;;;;;5004314;28;20438;-51
2021/12/20 06:22:45;;;;;;;16.70;2.90;;;5.20;99.90;;;;;;5005097;28;20041;-54
2021/12/20 06:25:11;;;;;;;15.82;2.95;;;5.20;99.90;;;;;;5011947;28;20034;-53
2021/12/20 06:27:37;;;;;;;12.80;2.78;;;5.10;99.90;;;;;;5003317;28;20097;-53
2021/12/20 06:30:04;;;;;;;16.63;3.20;;;5.10;99.90;;;;;;5002071;28;20026;-53
2021/12/20 06:32:29;;;;;;;17.35;3.22;;;5.10;99.90;;;;;;5008597;28;20041;-53
2021/12/20 06:34:55;;;;;;;17.40;3.40;;;5.00;99.90;;;;;;5007383;28;20096;-51
2021/12/20 06:37:21;;;;;;;19.20;3.10;;;4.90;99.90;;;;;;5010668;28;20037;-52
2021/12/20 06:39:47;;;;;;;16.70;2.70;;;4.90;99.90;;;;;;5011179;28;20034;-51
2021/12/20 06:42:13;;;;;;;14.40;2.38;;;4.90;99.90;;;;;;5010609;28;20428;-54
2021/12/20 06:44:38;;;;;;;19.65;2.97;;;4.80;99.90;;;;;;5011167;28;20041;-53
2021/12/20 06:47:04;;;;;;;16.48;3.17;;;4.70;99.90;;;;;;5011903;28;20486;-51
2021/12/20 06:49:29;;;;;;;15.70;4.38;;;4.60;99.90;;;;;;5012246;28;20053;-54
2021/12/20 06:51:58;;;;;;;19.80;2.88;;;4.60;99.90;;;;;;5011848;28;20038;-53
2021/12/20 06:54:24;;;;;;;14.48;2.67;;;4.50;99.90;;;;;;5012128;28;20050;-52
2021/12/20 06:56:49;;;;;;;8.95;2.33;;;4.40;99.90;;;;;;5011740;28;20049;-52
2021/12/20 06:59:15;;;;;;;16.38;2.63;;;4.40;99.90;;;;;;5002306;28;20041;-52
2021/12/20 07:01:41;;;;;;;18.08;2.75;;;4.40;99.90;;;;;;5010950;28;20060;-53
2021/12/20 07:04:07;;;;;;;17.15;2.83;;;4.30;99.90;;;;;;5002414;28;20038;-52
2021/12/20 07:06:33;;;;;;;16.25;2.65;;;4.30;99.90;;;;;;5009104;28;20047;-53
2021/12/20 07:08:59;;;;;;;25.85;3.15;;;4.20;99.90;;;;;;5011360;28;20050;-55
2021/12/20 07:11:24;;;;;;;14.10;2.70;;;4.10;99.90;;;;;;5010838;28;20110;-53
2021/12/20 07:13:53;;;;;;;24.90;3.97;;;4.10;99.90;;;;;;5010754;28;20041;-53
2021/12/20 07:16:19;;;;;;;21.98;4.25;;;4.10;99.90;;;;;;5011010;28;20096;-53
2021/12/20 07:18:45;;;;;;;18.70;5.32;;;4.10;99.90;;;;;;5000164;28;20042;-55
2021/12/20 07:21:11;;;;;;;18.05;3.83;;;4.00;99.90;;;;;;4999874;28;20073;-55
2021/12/20 07:23:36;;;;;;;17.27;4.15;;;4.00;99.90;;;;;;5001194;28;20052;-54
2021/12/20 07:26:03;;;;;;;16.05;3.15;;;4.00;99.90;;;;;;4997483;28;20387;-55
2021/12/20 07:28:29;;;;;;;19.45;3.83;;;3.90;99.90;;;;;;5004506;28;20068;-54
2021/12/20 07:30:54;;;;;;;10.18;2.10;;;3.90;99.90;;;;;;4999289;28;20107;-55
2021/12/20 07:33:20;;;;;;;13.43;2.90;;;3.80;99.90;;;;;;5006846;28;20121;-56
2021/12/20 07:35:46;;;;;;;11.45;2.35;;;3.80;99.90;;;;;;4998694;28;20039;-56
2021/12/20 07:38:13;;;;;;;15.48;2.95;;;3.80;99.90;;;;;;4998752;28;20042;-55
2021/12/20 07:40:44;;;;;;;10.50;2.47;;;3.70;99.90;;;;;;5001608;28;20034;-53
2021/12/20 07:43:10;;;;;;;18.75;3.10;;;3.70;99.90;;;;;;5011304;28;20417;-55
2021/12/20 07:45:35;;;;;;;18.42;3.05;;;3.70;99.90;;;;;;5010950;28;20042;-55
2021/12/20 07:48:01;;;;;;;16.88;3.47;;;3.70;99.90;;;;;;5011632;28;20053;-52
2021/12/20 07:50:27;;;;;;;12.18;2.92;;;3.60;99.90;;;;;;5014043;28;20042;-56
2021/12/20 07:52:52;;;;;;;13.70;2.83;;;3.50;99.90;;;;;;5015518;28;20040;-56
2021/12/20 07:55:18;;;;;;;10.18;2.35;;;3.40;99.90;;;;;;5014490;28;20084;-54
2021/12/20 07:57:44;;;;;;;11.85;2.28;;;3.40;99.90;;;;;;4999871;28;20030;-53
2021/12/20 08:00:11;;;;;;;13.48;2.45;;;3.40;99.90;;;;;;4998128;28;20121;-55
2021/12/20 08:02:37;;;;;;;15.95;2.28;;;3.30;99.90;;;;;;4994334;28;20056;-53
2021/12/20 08:05:03;;;;;;;14.80;2.67;;;3.30;99.90;;;;;;4995727;28;20414;-52
2021/12/20 08:07:29;;;;;;;12.70;3.33;;;3.30;99.90;;;;;;5002181;28;20234;-56
2021/12/20 08:09:54;;;;;;;18.60;4.00;;;3.30;99.90;;;;;;5009311;28;20034;-53
2021/12/20 08:12:20;;;;;;;11.43;2.35;;;3.20;99.90;;;;;;5014752;28;20044;-52
2021/12/20 08:17:21;;;;;;;11.05;2.38;;;3.10;99.90;;;;;;5071047;22;20061;-52
2021/12/20 08:19:46;;;;;;;21.45;3.20;;;3.10;99.90;;;;;;5012023;28;20034;-52
2021/12/20 08:22:12;;;;;;;27.05;3.85;;;3.10;99.90;;;;;;5009785;28;20034;-53
2021/12/20 08:24:38;;;;;;;12.55;3.00;;;3.10;99.90;;;;;;5003177;28;20433;-49
2021/12/20 08:27:03;;;;;;;13.05;2.08;;;3.10;99.90;;;;;;5019529;28;20414;-52
2021/12/20 08:29:29;;;;;;;13.85;2.78;;;3.10;99.90;;;;;;5030317;28;20092;-53
2021/12/20 08:31:59;;;;;;;12.32;3.15;;;3.10;99.90;;;;;;5031848;28;20048;-48
2021/12/20 08:34:25;;;;;;;14.20;2.10;;;3.10;99.90;;;;;;5026033;28;20509;-51
2021/12/20 08:36:50;;;;;;;16.40;2.58;;;3.10;99.90;;;;;;5023803;28;20034;-51
2021/12/20 08:39:19;;;;;;;8.80;2.38;;;3.10;99.90;;;;;;5012920;28;20078;-50
2021/12/20 08:41:45;;;;;;;13.13;3.53;;;3.10;99.90;;;;;;5013760;28;20049;-52
2021/12/20 08:44:11;;;;;;;9.35;2.42;;;3.10;99.90;;;;;;5013761;28;20505;-52
2021/12/20 08:46:36;;;;;;;12.40;2.30;;;3.10;99.90;;;;;;5013203;28;20084;-52
2021/12/20 08:49:02;;;;;;;10.60;2.58;;;3.10;99.90;;;;;;5013691;28;20121;-52
2021/12/20 08:51:29;;;;;;;16.83;2.92;;;3.20;99.90;;;;;;5013935;28;20053;-53
2021/12/20 08:53:54;;;;;;;14.10;2.92;;;3.20;99.90;;;;;;5013607;28;20046;-52
2021/12/20 08:56:20;;;;;;;15.70;2.65;;;3.20;99.90;;;;;;5011343;28;20486;-52
2021/12/20 08:58:46;;;;;;;15.50;3.72;;;3.30;99.90;;;;;;5015015;28;20504;-52
2021/12/20 09:01:12;;;;;;;12.40;3.05;;;3.30;99.90;;;;;;5027827;28;20080;-54
2021/12/20 09:03:38;;;;;;;18.67;4.15;;;3.30;99.90;;;;;;5015647;28;20491;-53
2021/12/20 09:06:04;;;;;;;16.67;3.75;;;3.30;99.90;;;;;;5024815;28;20128;-53
2021/12/20 09:08:30;;;;;;;12.27;3.53;;;3.30;99.90;;;;;;5013512;28;20037;-53
2021/12/20 09:10:56;;;;;;;15.63;3.97;;;3.40;99.90;;;;;;4979560;28;20081;-52
2021/12/20 09:13:22;;;;;;;17.67;3.30;;;3.30;99.90;;;;;;5012962;28;20526;-49
2021/12/20 09:15:49;;;;;;;16.35;3.88;;;3.30;99.90;;;;;;4988647;28;20398;-53
2021/12/20 09:18:14;;;;;;;15.32;4.05;;;3.40;99.90;;;;;;5002865;28;20049;-52
2021/12/20 09:20:41;;;;;;;18.77;4.15;;;3.40;99.90;;;;;;5013155;28;20081;-53
2021/12/20 09:23:10;;;;;;;14.70;3.42;;;3.50;99.90;;;;;;5012941;28;20510;-52
2021/12/20 09:25:40;;;;;;;20.63;4.40;;;3.40;99.90;;;;;;4994890;28;20410;-53
2021/12/20 09:28:10;;;;;;;11.40;3.22;;;3.50;99.90;;;;;;4995438;28;20049;-52
2021/12/20 09:30:37;;;;;;;15.30;3.90;;;3.50;99.90;;;;;;5013309;28;20042;-50
2021/12/20 09:33:04;;;;;;;10.70;3.38;;;3.50;99.90;;;;;;5013037;28;20038;-52
2021/12/20 09:35:30;;;;;;;9.77;3.15;;;3.60;99.90;;;;;;4994929;28;20418;-50
2021/12/20 09:37:55;;;;;;;14.48;3.45;;;3.60;99.90;;;;;;4995529;28;20482;-49
2021/12/20 09:40:33;;;;;;;13.00;2.90;;;3.70;99.90;;;;;;5012378;28;20093;-52
2021/12/20 09:43:02;;;;;;;17.77;3.72;;;3.70;99.90;;;;;;5008274;28;20035;-53
2021/12/20 09:45:30;;;;;;;19.92;3.50;;;3.70;99.90;;;;;;4993777;28;20066;-50
2021/12/20 09:47:56;;;;;;;13.82;3.45;;;3.80;99.90;;;;;;4959602;28;20491;-51
2021/12/20 09:50:22;;;;;;;14.40;4.07;;;3.90;99.90;;;;;;4993266;28;20045;-52
2021/12/20 09:52:49;;;;;;;22.38;4.80;;;4.00;99.90;;;;;;4977609;28;20038;-52
2021/12/20 09:55:16;;;;;;;31.13;5.25;;;4.00;99.90;;;;;;4992553;28;20093;-52
2021/12/20 09:57:44;;;;;;;25.52;4.82;;;4.10;99.90;;;;;;4992989;28;20042;-52
2021/12/20 10:00:12;;;;;;;27.10;5.50;;;4.20;99.90;;;;;;4993100;28;20117;-52
2021/12/20 10:02:37;;;;;;;28.42;5.00;;;4.30;99.90;;;;;;5012911;28;20077;-52
2021/12/20 10:05:04;;;;;;;27.52;4.97;;;4.40;99.90;;;;;;5026282;28;20535;-52
2021/12/20 10:07:31;;;;;;;19.20;4.72;;;4.40;99.90;;;;;;5032002;28;20037;-52
2021/12/20 10:09:56;;;;;;;27.67;4.90;;;4.50;99.90;;;;;;5014358;28;20053;-52
2021/12/20 10:12:25;;;;;;;20.92;4.22;;;4.50;99.90;;;;;;5029487;28;20051;-52
2021/12/20 10:15:05;;;;;;;22.95;5.10;;;4.60;99.90;;;;;;4990765;28;20410;-52
2021/12/20 10:17:52;;;;;;;24.52;3.90;;;4.70;99.90;;;;;;4992611;28;20042;-52
2021/12/20 10:20:23;;;;;;;67.03;6.03;;;4.70;99.90;;;;;;4958862;28;20062;-53
2021/12/20 10:23:44;;;;;;;25.15;4.97;;;4.70;99.90;;;;;;4995824;28;20034;-46
2021/12/20 10:26:13;;;;;;;21.23;4.53;;;4.80;99.90;;;;;;5002433;28;20058;-49
2021/12/20 10:28:40;;;;;;;29.60;5.32;;;4.80;99.90;;;;;;5011887;28;20633;-51
2021/12/20 10:31:28;;;;;;;25.30;5.82;;;4.90;99.90;;;;;;5012303;28;20045;-49
2021/12/20 10:34:01;;;;;;;33.63;6.57;;;4.90;99.90;;;;;;5012018;28;20042;-49
2021/12/20 10:36:27;;;;;;;37.05;8.43;;;5.00;99.90;;;;;;5011787;28;20042;-47
2021/12/20 10:38:58;;;;;;;28.10;5.95;;;5.00;99.90;;;;;;5011237;28;20053;-49
2021/12/20 10:41:33;;;;;;;32.45;10.00;;;5.00;99.90;;;;;;4979728;28;20085;-47
2021/12/20 10:44:02;;;;;;;30.63;9.73;;;5.10;99.90;;;;;;4992341;28;20041;-51
2021/12/20 10:46:33;;;;;;;31.80;8.38;;;5.10;99.90;;;;;;4992256;28;20046;-48
2021/12/20 10:49:03;;;;;;;26.70;4.75;;;5.10;99.90;;;;;;4992346;28;20038;-50
2021/12/20 10:51:36;;;;;;;24.95;4.53;;;5.20;99.90;;;;;;4992005;28;20042;-48
2021/12/20 10:54:09;;;;;;;24.50;3.83;;;5.20;99.90;;;;;;4974765;28;20054;-47
2021/12/20 10:56:38;;;;;;;28.48;7.28;;;5.30;99.90;;;;;;4969691;28;20069;-47
2021/12/20 10:59:11;;;;;;;27.95;5.05;;;5.30;99.90;;;;;;5011943;28;20120;-50
2021/12/20 11:04:14;;;;;;;24.23;7.45;;;5.40;99.90;;;;;;5011281;28;19960;-48
2021/12/20 11:07:00;;;;;;;32.13;6.72;;;5.40;99.90;;;;;;5011840;28;20093;-49
2021/12/20 11:09:31;;;;;;;23.13;4.15;;;5.50;99.90;;;;;;5012093;28;20401;-47
2021/12/20 11:11:59;;;;;;;19.90;4.10;;;5.50;99.90;;;;;;5010968;28;20087;-49
2021/12/20 11:14:37;;;;;;;21.02;4.25;;;5.50;99.90;;;;;;5011452;28;20112;-49
2021/12/20 11:17:06;;;;;;;22.73;5.32;;;5.60;99.90;;;;;;4994032;28;20033;-49
2021/12/20 11:19:36;;;;;;;20.77;4.78;;;5.60;99.90;;;;;;5011594;28;20046;-48
2021/12/20 11:22:07;;;;;;;27.63;5.53;;;5.70;99.90;;;;;;5011416;28;20033;-47
2021/12/20 11:24:50;;;;;;;25.17;4.03;;;5.70;99.90;;;;;;5011697;28;20085;-49
2021/12/20 11:27:19;;;;;;;21.13;5.28;;;5.80;99.90;;;;;;4978569;28;20082;-50
2021/12/20 11:29:49;;;;;;;24.58;5.53;;;5.80;99.90;;;;;;4978231;28;20046;-48
2021/12/20 11:32:17;;;;;;;17.42;4.47;;;5.80;99.90;;;;;;4995618;28;20050;-50
2021/12/20 11:34:43;;;;;;;25.55;4.60;;;5.80;99.90;;;;;;4995624;28;20084;-50
2021/12/20 11:37:19;;;;;;;18.45;4.43;;;5.80;99.90;;;;;;4995461;28;20202;-50
2021/12/20 11:39:47;;;;;;;18.27;3.60;;;5.80;99.90;;;;;;5002090;28;20494;-47
2021/12/20 11:42:13;;;;;;;16.75;3.70;;;5.80;99.90;;;;;;4999226;28;20038;-48
2021/12/20 11:44:39;;;;;;;17.90;3.63;;;5.50;99.90;;;;;;5015078;28;20087;-51
2021/12/20 11:47:32;;;;;;;21.52;5.10;;;5.90;99.90;;;;;;5014911;28;20049;-50
2021/12/20 11:50:10;;;;;;;12.57;3.05;;;5.90;99.90;;;;;;4981190;28;20052;-50
2021/12/20 11:52:41;;;;;;;15.30;3.50;;;5.90;99.90;;;;;;5014674;28;20513;-47
2021/12/20 11:55:20;;;;;;;17.02;3.55;;;5.90;99.90;;;;;;5014681;28;20463;-47
2021/12/20 11:57:58;;;;;;;20.02;3.65;;;5.90;99.90;;;;;;4995391;28;20052;-48
2021/12/20 12:00:25;;;;;;;17.50;4.40;;;6.00;99.90;;;;;;5014835;28;20049;-48
2021/12/20 12:02:58;;;;;;;13.65;3.75;;;6.00;99.90;;;;;;5014532;28;20037;-50
2021/12/20 12:05:31;;;;;;;;;;;6.00;99.90;;;;;;5007714;28;20398;-48
2021/12/20 12:08:43;;;;;;;12.52;3.03;;;6.10;99.90;;;;;;5013517;28;20000;-48
2021/12/20 12:11:09;;;;;;;14.95;3.45;;;6.10;99.90;;;;;;4998532;28;20161;-48
2021/12/20 12:14:03;;;;;;;12.48;3.30;;;6.10;99.90;;;;;;4995782;28;20048;-51
2021/12/20 12:17:05;;;;;;;14.55;3.05;;;6.20;99.90;;;;;;5015481;28;20041;-48
2021/12/20 12:19:47;;;;;;;13.65;3.08;;;6.20;99.90;;;;;;5015386;28;20054;-49
2021/12/20 12:22:37;;;;;;;13.40;3.50;;;6.20;99.90;;;;;;5034004;28;20033;-50
2021/12/20 12:25:05;;;;;;;11.93;2.95;;;6.20;99.90;;;;;;5033919;28;20037;-50
2021/12/20 12:27:33;;;;;;;14.10;2.78;;;6.20;99.90;;;;;;5016598;28;20061;-50
2021/12/20 12:30:14;;;;;;;11.25;2.92;;;6.20;99.90;;;;;;4990510;28;20132;-50
2021/12/20 12:32:54;;;;;;;15.07;3.55;;;6.30;99.90;;;;;;4996594;28;20096;-49
2021/12/20 12:35:51;;;;;;;13.05;3.53;;;6.30;99.90;;;;;;5013888;28;20049;-49
2021/12/20 12:38:57;;;;;;;12.40;2.92;;;6.30;99.90;;;;;;5014238;28;20414;-48
2021/12/20 12:41:43;;;;;;;12.77;3.03;;;6.30;99.90;;;;;;4979826;28;20604;-51
2021/12/20 12:44:15;;;;;;;11.23;2.58;;;6.30;99.90;;;;;;5010772;28;20033;-49
2021/12/20 12:46:43;;;;;;;14.13;3.58;;;6.40;99.90;;;;;;5025454;28;20041;-49
2021/12/20 12:49:21;;;;;;;13.88;2.53;;;6.40;99.90;;;;;;5009800;28;20076;-49
2021/12/20 12:51:48;;;;;;;11.93;2.58;;;6.40;99.50;;;;;;5027483;28;20044;-52
2021/12/20 12:54:58;;;;;;;12.13;2.55;;;6.40;99.90;;;;;;4996678;22;20073;-50
2021/12/20 12:57:24;;;;;;;15.40;4.63;;;6.40;99.20;;;;;;4967533;28;20058;-53
2021/12/20 12:59:50;;;;;;;10.27;2.90;;;6.40;99.80;;;;;;4991336;28;20042;-52
2021/12/20 13:02:19;;;;;;;11.85;3.22;;;6.40;99.20;;;;;;4984840;28;20046;-53
2021/12/20 13:04:47;;;;;;;14.38;3.80;;;6.50;97.40;;;;;;4991188;28;20049;-53
2021/12/20 13:12:41;;;;;;;6.95;1.80;;;6.50;96.80;;;;;;5629268;22;20057;-48
2021/12/20 13:15:16;;;;;;;9.82;2.38;;;6.50;98.10;;;;;;4986395;28;20494;-48
2021/12/20 13:17:44;;;;;;;7.00;1.88;;;6.50;97.90;;;;;;4991086;28;20071;-50
2021/12/20 13:20:24;;;;;;;9.57;2.08;;;6.50;98.10;;;;;;4998929;28;20470;-50